sensor_id;sensor_type;location;lat;lon;timestamp;pressure;altitude;pressure_sealevel;temperature;humidity
35331;BME280;21441;52.190;20.910;2023-04-25T00:01:21;98885.47;;;12.37;100.00
35331;BME280;21441;52.190;20.910;2023-04-25T00:03:48;98878.47;;;12.43;100.00
35331;BME280;21441;52.190;20.910;2023-04-25T00:06:16;98870.69;;;12.35;100.00
35331;BME280;21441;52.190;20.910;2023-04-25T00:08:44;98871.34;;;12.30;100.00
35331;BME280;21441;52.190;20.910;2023-04-25T00:11:11;98873.38;;;12.35;100.00
35331;BME280;21441;52.190;20.910;2023-04-25T00:13:40;98878.34;;;12.25;100.00
35331;BME280;21441;52.190;20.910;2023-04-25T00:16:07;98873.69;;;12.13;100.00
35331;BME280;21441;52.190;20.910;2023-04-25T00:18:34;98876.78;;;12.17;100.00
35331;BME280;21441;52.190;20.910;2023-04-25T00:21:01;98871.38;;;12.24;100.00
35331;BME280;21441;52.190;20.910;2023-04-25T00:23:32;98870.03;;;12.08;100.00
35331;BME280;21441;52.190;20.910;2023-04-25T00:26:01;98876.84;;;12.04;100.00
35331;BME280;21441;52.190;20.910;2023-04-25T00:28:28;98881.78;;;12.00;100.00
35331;BME280;21441;52.190;20.910;2023-04-25T00:30:56;98859.38;;;12.01;100.00
35331;BME280;21441;52.190;20.910;2023-04-25T00:33:23;98881.59;;;12.02;100.00
35331;BME280;21441;52.190;20.910;2023-04-25T00:35:50;98879.72;;;12.02;100.00
35331;BME280;21441;52.190;20.910;2023-04-25T00:38:18;98867.63;;;12.00;100.00
35331;BME280;21441;52.190;20.910;2023-04-25T00:40:45;98863.56;;;11.90;100.00
35331;BME280;21441;52.190;20.910;2023-04-25T00:43:13;98861.91;;;11.83;100.00
35331;BME280;21441;52.190;20.910;2023-04-25T00:45:40;98872.41;;;11.77;100.00
35331;BME280;21441;52.190;20.910;2023-04-25T00:48:08;98874.31;;;11.64;100.00
35331;BME280;21441;52.190;20.910;2023-04-25T00:50:36;98879.03;;;11.68;100.00
35331;BME280;21441;52.190;20.910;2023-04-25T00:53:03;98877.59;;;11.59;100.00
35331;BME280;21441;52.190;20.910;2023-04-25T00:55:31;98872.25;;;11.59;100.00
35331;BME280;21441;52.190;20.910;2023-04-25T00:58:00;98884.59;;;11.60;100.00
35331;BME280;21441;52.190;20.910;2023-04-25T01:00:28;98880.91;;;11.54;100.00
35331;BME280;21441;52.190;20.910;2023-04-25T01:02:56;98878.06;;;11.43;100.00
35331;BME280;21441;52.190;20.910;2023-04-25T01:05:24;98880.31;;;11.46;100.00
35331;BME280;21441;52.190;20.910;2023-04-25T01:07:51;98875.84;;;11.40;100.00
35331;BME280;21441;52.190;20.910;2023-04-25T01:10:19;98883.47;;;11.23;100.00
35331;BME280;21441;52.190;20.910;2023-04-25T01:12:46;98884.44;;;11.35;100.00
35331;BME280;21441;52.190;20.910;2023-04-25T01:15:13;98880.75;;;11.43;100.00
35331;BME280;21441;52.190;20.910;2023-04-25T01:17:40;98883.66;;;11.28;100.00
35331;BME280;21441;52.190;20.910;2023-04-25T01:20:11;98877.50;;;11.21;100.00
35331;BME280;21441;52.190;20.910;2023-04-25T01:22:40;98877.69;;;11.26;100.00
35331;BME280;21441;52.190;20.910;2023-04-25T01:25:07;98876.28;;;11.17;100.00
35331;BME280;21441;52.190;20.910;2023-04-25T01:27:36;98881.81;;;11.15;100.00
35331;BME280;21441;52.190;20.910;2023-04-25T01:30:04;98868.28;;;11.10;100.00
35331;BME280;21441;52.190;20.910;2023-04-25T01:32:33;98868.09;;;11.05;100.00
35331;BME280;21441;52.190;20.910;2023-04-25T01:35:04;98875.88;;;11.06;100.00
35331;BME280;21441;52.190;20.910;2023-04-25T01:37:35;98871.41;;;11.00;100.00
35331;BME280;21441;52.190;20.910;2023-04-25T01:40:05;98865.44;;;11.05;100.00
35331;BME280;21441;52.190;20.910;2023-04-25T01:42:33;98868.91;;;10.99;100.00
35331;BME280;21441;52.190;20.910;2023-04-25T01:45:01;98862.38;;;10.88;100.00
35331;BME280;21441;52.190;20.910;2023-04-25T01:47:28;98872.41;;;10.99;100.00
35331;BME280;21441;52.190;20.910;2023-04-25T01:49:55;98865.44;;;10.85;100.00
35331;BME280;21441;52.190;20.910;2023-04-25T01:52:23;98859.25;;;10.98;100.00
35331;BME280;21441;52.190;20.910;2023-04-25T01:54:50;98866.88;;;10.87;100.00
35331;BME280;21441;52.190;20.910;2023-04-25T01:57:19;98866.25;;;10.92;100.00
35331;BME280;21441;52.190;20.910;2023-04-25T01:59:47;98869.75;;;10.99;100.00
35331;BME280;21441;52.190;20.910;2023-04-25T02:02:14;98870.53;;;11.00;100.00
35331;BME280;21441;52.190;20.910;2023-04-25T02:04:41;98870.97;;;10.97;100.00
35331;BME280;21441;52.190;20.910;2023-04-25T02:07:09;98877.13;;;11.04;100.00
35331;BME280;21441;52.190;20.910;2023-04-25T02:09:35;98872.22;;;10.94;100.00
35331;BME280;21441;52.190;20.910;2023-04-25T02:12:03;98864.00;;;10.96;100.00
35331;BME280;21441;52.190;20.910;2023-04-25T02:14:32;98866.88;;;11.01;100.00
35331;BME280;21441;52.190;20.910;2023-04-25T02:16:59;98861.53;;;11.07;100.00
35331;BME280;21441;52.190;20.910;2023-04-25T02:19:26;98860.06;;;11.18;100.00
35331;BME280;21441;52.190;20.910;2023-04-25T02:21:53;98857.63;;;11.03;100.00
35331;BME280;21441;52.190;20.910;2023-04-25T02:24:20;98858.63;;;11.15;100.00
35331;BME280;21441;52.190;20.910;2023-04-25T02:26:48;98860.69;;;11.20;100.00
35331;BME280;21441;52.190;20.910;2023-04-25T02:29:16;98863.72;;;11.24;100.00
35331;BME280;21441;52.190;20.910;2023-04-25T02:31:44;98857.84;;;10.88;100.00
35331;BME280;21441;52.190;20.910;2023-04-25T02:34:11;98856.59;;;10.98;100.00
35331;BME280;21441;52.190;20.910;2023-04-25T02:36:39;98855.59;;;10.79;100.00
35331;BME280;21441;52.190;20.910;2023-04-25T02:39:06;98852.50;;;10.82;100.00
35331;BME280;21441;52.190;20.910;2023-04-25T02:41:33;98857.44;;;10.85;100.00
35331;BME280;21441;52.190;20.910;2023-04-25T02:44:00;98854.38;;;10.74;100.00
35331;BME280;21441;52.190;20.910;2023-04-25T02:46:28;98853.75;;;10.72;100.00
35331;BME280;21441;52.190;20.910;2023-04-25T02:48:57;98867.09;;;10.66;100.00
35331;BME280;21441;52.190;20.910;2023-04-25T02:51:24;98860.13;;;10.65;100.00
35331;BME280;21441;52.190;20.910;2023-04-25T02:53:52;98853.13;;;10.70;100.00
35331;BME280;21441;52.190;20.910;2023-04-25T02:56:19;98851.06;;;10.86;100.00
35331;BME280;21441;52.190;20.910;2023-04-25T02:58:46;98852.31;;;10.90;100.00
35331;BME280;21441;52.190;20.910;2023-04-25T03:01:13;98850.25;;;10.85;100.00
35331;BME280;21441;52.190;20.910;2023-04-25T03:03:40;98851.69;;;10.88;100.00
35331;BME280;21441;52.190;20.910;2023-04-25T03:06:09;98851.66;;;11.01;100.00
35331;BME280;21441;52.190;20.910;2023-04-25T03:08:36;98849.22;;;10.93;100.00
35331;BME280;21441;52.190;20.910;2023-04-25T03:11:03;98854.53;;;11.00;100.00
35331;BME280;21441;52.190;20.910;2023-04-25T03:13:30;98850.88;;;10.94;100.00
35331;BME280;21441;52.190;20.910;2023-04-25T03:15:58;98864.41;;;10.86;100.00
35331;BME280;21441;52.190;20.910;2023-04-25T03:18:25;98860.94;;;10.85;100.00
35331;BME280;21441;52.190;20.910;2023-04-25T03:20:52;98864.00;;;10.82;100.00
35331;BME280;21441;52.190;20.910;2023-04-25T03:23:21;98864.22;;;10.67;100.00
35331;BME280;21441;52.190;20.910;2023-04-25T03:25:48;98861.94;;;10.58;100.00
35331;BME280;21441;52.190;20.910;2023-04-25T03:28:15;98856.41;;;10.59;100.00
35331;BME280;21441;52.190;20.910;2023-04-25T03:30:43;98861.94;;;10.58;100.00
35331;BME280;21441;52.190;20.910;2023-04-25T03:33:09;98857.66;;;10.57;100.00
35331;BME280;21441;52.190;20.910;2023-04-25T03:35:37;98854.38;;;10.68;100.00
35331;BME280;21441;52.190;20.910;2023-04-25T03:38:04;98859.72;;;10.61;100.00
35331;BME280;21441;52.190;20.910;2023-04-25T03:40:33;98862.56;;;10.73;100.00
35331;BME280;21441;52.190;20.910;2023-04-25T03:43:00;98872.63;;;10.71;100.00
35331;BME280;21441;52.190;20.910;2023-04-25T03:45:27;98874.28;;;10.59;100.00
35331;BME280;21441;52.190;20.910;2023-04-25T03:47:55;98876.09;;;10.58;100.00
35331;BME280;21441;52.190;20.910;2023-04-25T03:50:22;98881.66;;;10.50;100.00
35331;BME280;21441;52.190;20.910;2023-04-25T03:52:49;98877.75;;;10.59;100.00
35331;BME280;21441;52.190;20.910;2023-04-25T03:55:17;98878.78;;;10.65;100.00
35331;BME280;21441;52.190;20.910;2023-04-25T03:57:45;98884.72;;;10.67;100.00
35331;BME280;21441;52.190;20.910;2023-04-25T04:00:13;98881.84;;;10.62;100.00
35331;BME280;21441;52.190;20.910;2023-04-25T04:02:41;98881.03;;;10.55;100.00
35331;BME280;21441;52.190;20.910;2023-04-25T04:05:08;98883.28;;;10.58;100.00
35331;BME280;21441;52.190;20.910;2023-04-25T04:07:35;98888.22;;;10.67;100.00
35331;BME280;21441;52.190;20.910;2023-04-25T04:10:06;98889.03;;;10.74;100.00
35331;BME280;21441;52.190;20.910;2023-04-25T04:12:33;98896.41;;;10.59;100.00
35331;BME280;21441;52.190;20.910;2023-04-25T04:15:02;98895.59;;;10.59;100.00
35331;BME280;21441;52.190;20.910;2023-04-25T04:17:30;98901.97;;;10.71;100.00
35331;BME280;21441;52.190;20.910;2023-04-25T04:19:58;98892.13;;;10.65;100.00
35331;BME280;21441;52.190;20.910;2023-04-25T04:22:25;98902.19;;;10.76;100.00
35331;BME280;21441;52.190;20.910;2023-04-25T04:24:52;98901.97;;;10.78;100.00
35331;BME280;21441;52.190;20.910;2023-04-25T04:27:21;98895.00;;;10.90;100.00
35331;BME280;21441;52.190;20.910;2023-04-25T04:29:49;98896.84;;;10.96;100.00
35331;BME280;21441;52.190;20.910;2023-04-25T04:32:19;98891.72;;;10.81;100.00
35331;BME280;21441;52.190;20.910;2023-04-25T04:34:46;98897.22;;;10.93;100.00
35331;BME280;21441;52.190;20.910;2023-04-25T04:37:14;98890.28;;;10.92;100.00
35331;BME280;21441;52.190;20.910;2023-04-25T04:39:41;98906.91;;;10.94;100.00
35331;BME280;21441;52.190;20.910;2023-04-25T04:42:08;98901.34;;;10.82;100.00
35331;BME280;21441;52.190;20.910;2023-04-25T04:44:38;98902.56;;;10.86;100.00
35331;BME280;21441;52.190;20.910;2023-04-25T04:47:05;98906.03;;;10.47;100.00
35331;BME280;21441;52.190;20.910;2023-04-25T04:49:34;98910.97;;;10.37;100.00
35331;BME280;21441;52.190;20.910;2023-04-25T04:52:01;98904.41;;;10.39;100.00
35331;BME280;21441;52.190;20.910;2023-04-25T04:54:28;98909.94;;;10.51;100.00
35331;BME280;21441;52.190;20.910;2023-04-25T04:56:55;98899.50;;;10.63;100.00
35331;BME280;21441;52.190;20.910;2023-04-25T04:59:23;98897.63;;;10.37;100.00
35331;BME280;21441;52.190;20.910;2023-04-25T05:01:50;98896.59;;;10.51;100.00
35331;BME280;21441;52.190;20.910;2023-04-25T05:04:17;98896.84;;;10.49;100.00
35331;BME280;21441;52.190;20.910;2023-04-25T05:06:45;98903.63;;;10.79;100.00
35331;BME280;21441;52.190;20.910;2023-04-25T05:09:13;98903.41;;;10.80;100.00
35331;BME280;21441;52.190;20.910;2023-04-25T05:11:40;98895.00;;;10.90;100.00
35331;BME280;21441;52.190;20.910;2023-04-25T05:14:07;98904.84;;;10.63;100.00
35331;BME280;21441;52.190;20.910;2023-04-25T05:16:34;98910.13;;;10.36;100.00
35331;BME280;21441;52.190;20.910;2023-04-25T05:19:02;98916.69;;;10.40;100.00
35331;BME280;21441;52.190;20.910;2023-04-25T05:21:29;98921.56;;;10.23;100.00
35331;BME280;21441;52.190;20.910;2023-04-25T05:23:58;98904.59;;;10.38;100.00
35331;BME280;21441;52.190;20.910;2023-04-25T05:26:25;98914.91;;;10.67;100.00
35331;BME280;21441;52.190;20.910;2023-04-25T05:28:56;98913.66;;;10.70;100.00
35331;BME280;21441;52.190;20.910;2023-04-25T05:31:23;98908.94;;;10.92;100.00
35331;BME280;21441;52.190;20.910;2023-04-25T05:33:51;98910.38;;;10.88;100.00
35331;BME280;21441;52.190;20.910;2023-04-25T05:36:18;98913.06;;;10.94;100.00
35331;BME280;21441;52.190;20.910;2023-04-25T05:38:45;98916.53;;;10.95;100.00
35331;BME280;21441;52.190;20.910;2023-04-25T05:41:14;98913.03;;;11.14;100.00
35331;BME280;21441;52.190;20.910;2023-04-25T05:43:41;98915.50;;;11.23;100.00
35331;BME280;21441;52.190;20.910;2023-04-25T05:46:12;98914.66;;;11.42;100.00
35331;BME280;21441;52.190;20.910;2023-04-25T05:48:39;98913.41;;;11.45;100.00
35331;BME280;21441;52.190;20.910;2023-04-25T05:51:06;98916.25;;;11.50;100.00
35331;BME280;21441;52.190;20.910;2023-04-25T05:53:34;98924.94;;;11.32;100.00
35331;BME280;21441;52.190;20.910;2023-04-25T05:56:01;98929.59;;;11.56;100.00
35331;BME280;21441;52.190;20.910;2023-04-25T05:58:30;98925.69;;;11.59;100.00
35331;BME280;21441;52.190;20.910;2023-04-25T06:00:57;98932.06;;;11.58;100.00
35331;BME280;21441;52.190;20.910;2023-04-25T06:03:24;98927.81;;;11.17;100.00
35331;BME280;21441;52.190;20.910;2023-04-25T06:05:51;98925.97;;;11.24;100.00
35331;BME280;21441;52.190;20.910;2023-04-25T06:08:18;98909.94;;;11.31;100.00
35331;BME280;21441;52.190;20.910;2023-04-25T06:10:45;98931.31;;;11.31;100.00
35331;BME280;21441;52.190;20.910;2023-04-25T06:13:13;98941.13;;;11.44;100.00
35331;BME280;21441;52.190;20.910;2023-04-25T06:15:42;98947.09;;;11.39;100.00
35331;BME280;21441;52.190;20.910;2023-04-25T06:18:10;98961.69;;;11.36;100.00
35331;BME280;21441;52.190;20.910;2023-04-25T06:20:37;98972.38;;;10.90;100.00
35331;BME280;21441;52.190;20.910;2023-04-25T06:23:04;98984.00;;;10.56;100.00
35331;BME280;21441;52.190;20.910;2023-04-25T06:25:31;98988.31;;;10.50;100.00
35331;BME280;21441;52.190;20.910;2023-04-25T06:27:59;98999.78;;;10.02;100.00
35331;BME280;21441;52.190;20.910;2023-04-25T06:30:26;99001.88;;;9.79;100.00
35331;BME280;21441;52.190;20.910;2023-04-25T06:32:54;98989.25;;;9.87;100.00
35331;BME280;21441;52.190;20.910;2023-04-25T06:35:22;98988.00;;;9.90;100.00
35331;BME280;21441;52.190;20.910;2023-04-25T06:37:49;98980.34;;;10.08;100.00
35331;BME280;21441;52.190;20.910;2023-04-25T06:40:16;98981.47;;;10.34;100.00
35331;BME280;21441;52.190;20.910;2023-04-25T06:42:44;98974.91;;;10.30;100.00
35331;BME280;21441;52.190;20.910;2023-04-25T06:45:11;98974.09;;;10.43;100.00
35331;BME280;21441;52.190;20.910;2023-04-25T06:47:38;98975.81;;;10.57;100.00
35331;BME280;21441;52.190;20.910;2023-04-25T06:50:07;98974.94;;;10.43;100.00
35331;BME280;21441;52.190;20.910;2023-04-25T06:52:35;98976.03;;;10.82;100.00
35331;BME280;21441;52.190;20.910;2023-04-25T06:55:03;98973.19;;;10.97;100.00
35331;BME280;21441;52.190;20.910;2023-04-25T06:57:31;98961.88;;;10.68;100.00
35331;BME280;21441;52.190;20.910;2023-04-25T06:59:58;98967.63;;;10.79;100.00
35331;BME280;21441;52.190;20.910;2023-04-25T07:02:25;98971.31;;;10.78;100.00
35331;BME280;21441;52.190;20.910;2023-04-25T07:04:52;98969.91;;;11.15;100.00
35331;BME280;21441;52.190;20.910;2023-04-25T07:07:23;98962.31;;;11.05;100.00
35331;BME280;21441;52.190;20.910;2023-04-25T07:09:50;98966.84;;;11.11;100.00
35331;BME280;21441;52.190;20.910;2023-04-25T07:12:17;98970.72;;;11.29;100.00
35331;BME280;21441;52.190;20.910;2023-04-25T07:14:45;98969.06;;;11.41;100.00
35331;BME280;21441;52.190;20.910;2023-04-25T07:17:12;98976.91;;;11.03;100.00
35331;BME280;21441;52.190;20.910;2023-04-25T07:19:39;98971.13;;;11.12;100.00
35331;BME280;21441;52.190;20.910;2023-04-25T07:22:06;98975.66;;;11.05;100.00
35331;BME280;21441;52.190;20.910;2023-04-25T07:24:35;98969.28;;;11.53;100.00
35331;BME280;21441;52.190;20.910;2023-04-25T07:27:02;98972.78;;;11.33;100.00
35331;BME280;21441;52.190;20.910;2023-04-25T07:29:29;98971.91;;;11.73;100.00
35331;BME280;21441;52.190;20.910;2023-04-25T07:31:57;98978.63;;;12.02;100.00
35331;BME280;21441;52.190;20.910;2023-04-25T07:34:24;98978.22;;;11.92;100.00
35331;BME280;21441;52.190;20.910;2023-04-25T07:36:52;98976.53;;;12.11;100.00
35331;BME280;21441;52.190;20.910;2023-04-25T07:39:19;98989.19;;;11.64;100.00
35331;BME280;21441;52.190;20.910;2023-04-25T07:41:48;98986.53;;;11.30;100.00
35331;BME280;21441;52.190;20.910;2023-04-25T07:44:15;98990.63;;;11.66;100.00
35331;BME280;21441;52.190;20.910;2023-04-25T07:46:42;98976.03;;;11.62;100.00
35331;BME280;21441;52.190;20.910;2023-04-25T07:49:09;98987.91;;;11.80;100.00
35331;BME280;21441;52.190;20.910;2023-04-25T07:51:37;98998.44;;;10.94;100.00
35331;BME280;21441;52.190;20.910;2023-04-25T07:54:04;98994.28;;;10.59;100.00
35331;BME280;21441;52.190;20.910;2023-04-25T07:56:31;98987.09;;;10.59;100.00
35331;BME280;21441;52.190;20.910;2023-04-25T07:59:00;98990.75;;;10.51;100.00
35331;BME280;21441;52.190;20.910;2023-04-25T08:01:27;98984.06;;;10.27;100.00
35331;BME280;21441;52.190;20.910;2023-04-25T08:03:54;98980.97;;;10.85;100.00
35331;BME280;21441;52.190;20.910;2023-04-25T08:06:21;98990.44;;;11.28;100.00
35331;BME280;21441;52.190;20.910;2023-04-25T08:08:48;98988.69;;;10.47;100.00
35331;BME280;21441;52.190;20.910;2023-04-25T08:11:16;98991.84;;;10.77;100.00
35331;BME280;21441;52.190;20.910;2023-04-25T08:13:43;99000.44;;;10.66;100.00
35331;BME280;21441;52.190;20.910;2023-04-25T08:16:11;99005.16;;;10.64;100.00
35331;BME280;21441;52.190;20.910;2023-04-25T08:18:39;99002.31;;;10.72;100.00
35331;BME280;21441;52.190;20.910;2023-04-25T08:21:06;99005.97;;;10.64;100.00
35331;BME280;21441;52.190;20.910;2023-04-25T08:23:34;99003.88;;;10.53;100.00
35331;BME280;21441;52.190;20.910;2023-04-25T08:26:02;99001.81;;;10.48;100.00
35331;BME280;21441;52.190;20.910;2023-04-25T08:28:30;99014.97;;;10.50;100.00
35331;BME280;21441;52.190;20.910;2023-04-25T08:30:58;99018.06;;;10.67;100.00
35331;BME280;21441;52.190;20.910;2023-04-25T08:33:26;99017.69;;;10.77;100.00
35331;BME280;21441;52.190;20.910;2023-04-25T08:35:54;99016.50;;;11.12;100.00
35331;BME280;21441;52.190;20.910;2023-04-25T08:38:21;99012.59;;;11.35;100.00
35331;BME280;21441;52.190;20.910;2023-04-25T08:40:50;99027.81;;;11.28;100.00
35331;BME280;21441;52.190;20.910;2023-04-25T08:43:18;99025.94;;;11.15;100.00
35331;BME280;21441;52.190;20.910;2023-04-25T08:45:46;99037.22;;;11.04;100.00
35331;BME280;21441;52.190;20.910;2023-04-25T08:48:15;99031.50;;;11.13;100.00
35331;BME280;21441;52.190;20.910;2023-04-25T08:50:48;99038.28;;;11.16;100.00
35331;BME280;21441;52.190;20.910;2023-04-25T08:53:21;99041.59;;;11.31;100.00
35331;BME280;21441;52.190;20.910;2023-04-25T08:55:49;99047.13;;;11.36;100.00
35331;BME280;21441;52.190;20.910;2023-04-25T08:58:18;99029.84;;;11.19;100.00
35331;BME280;21441;52.190;20.910;2023-04-25T09:00:46;99051.22;;;11.46;100.00
35331;BME280;21441;52.190;20.910;2023-04-25T09:03:13;99052.03;;;11.20;100.00
35331;BME280;21441;52.190;20.910;2023-04-25T09:05:40;99055.72;;;11.05;100.00
35331;BME280;21441;52.190;20.910;2023-04-25T09:08:09;99054.47;;;11.01;100.00
35331;BME280;21441;52.190;20.910;2023-04-25T09:10:37;99061.91;;;11.26;100.00
35331;BME280;21441;52.190;20.910;2023-04-25T09:13:06;99060.06;;;11.46;100.00
35331;BME280;21441;52.190;20.910;2023-04-25T09:15:47;99060.69;;;11.42;100.00
35331;BME280;21441;52.190;20.910;2023-04-25T09:18:22;99062.06;;;11.04;100.00
35331;BME280;21441;52.190;20.910;2023-04-25T09:20:51;99060.03;;;11.20;100.00
35331;BME280;21441;52.190;20.910;2023-04-25T09:23:23;99062.94;;;11.25;100.00
35331;BME280;21441;52.190;20.910;2023-04-25T09:25:51;99064.34;;;11.07;100.00
35331;BME280;21441;52.190;20.910;2023-04-25T09:28:23;99066.06;;;10.60;100.00
35331;BME280;21441;52.190;20.910;2023-04-25T09:30:55;99062.59;;;10.66;100.00
35331;BME280;21441;52.190;20.910;2023-04-25T09:33:27;99072.88;;;10.28;100.00
35331;BME280;21441;52.190;20.910;2023-04-25T09:36:01;99074.41;;;10.44;100.00
35331;BME280;21441;52.190;20.910;2023-04-25T09:38:32;99082.09;;;10.67;100.00
35331;BME280;21441;52.190;20.910;2023-04-25T09:40:59;99089.16;;;11.01;100.00
35331;BME280;21441;52.190;20.910;2023-04-25T09:43:27;99079.28;;;10.88;100.00
35331;BME280;21441;52.190;20.910;2023-04-25T09:45:55;99086.31;;;11.09;100.00
35331;BME280;21441;52.190;20.910;2023-04-25T09:48:27;99090.03;;;11.28;100.00
35331;BME280;21441;52.190;20.910;2023-04-25T09:51:04;99085.97;;;10.64;100.00
35331;BME280;21441;52.190;20.910;2023-04-25T09:53:33;99093.09;;;10.50;100.00
35331;BME280;21441;52.190;20.910;2023-04-25T09:56:04;99091.06;;;10.52;100.00
35331;BME280;21441;52.190;20.910;2023-04-25T09:58:33;99097.56;;;10.37;100.00
35331;BME280;21441;52.190;20.910;2023-04-25T10:01:02;99102.94;;;10.43;100.00
35331;BME280;21441;52.190;20.910;2023-04-25T10:03:31;99099.19;;;10.38;100.00
35331;BME280;21441;52.190;20.910;2023-04-25T10:06:00;99092.34;;;10.63;100.00
35331;BME280;21441;52.190;20.910;2023-04-25T10:08:30;99095.91;;;10.90;100.00
35331;BME280;21441;52.190;20.910;2023-04-25T10:11:01;99099.63;;;10.89;100.00
35331;BME280;21441;52.190;20.910;2023-04-25T10:13:30;99102.03;;;10.78;100.00
35331;BME280;21441;52.190;20.910;2023-04-25T10:15:58;99095.31;;;10.95;100.00
35331;BME280;21441;52.190;20.910;2023-04-25T10:18:26;99096.53;;;10.86;100.00
35331;BME280;21441;52.190;20.910;2023-04-25T10:20:55;99098.41;;;11.05;100.00
35331;BME280;21441;52.190;20.910;2023-04-25T10:23:23;99087.97;;;11.17;100.00
35331;BME280;21441;52.190;20.910;2023-04-25T10:25:52;99097.63;;;11.11;100.00
35331;BME280;21441;52.190;20.910;2023-04-25T10:28:21;99094.31;;;11.09;100.00
35331;BME280;21441;52.190;20.910;2023-04-25T10:30:57;99097.19;;;11.14;100.00
35331;BME280;21441;52.190;20.910;2023-04-25T10:33:35;99098.81;;;10.96;100.00
35331;BME280;21441;52.190;20.910;2023-04-25T10:36:09;99093.25;;;10.90;100.00
35331;BME280;21441;52.190;20.910;2023-04-25T10:38:37;99093.09;;;11.05;100.00
35331;BME280;21441;52.190;20.910;2023-04-25T10:41:05;99095.06;;;10.83;100.00
35331;BME280;21441;52.190;20.910;2023-04-25T10:43:37;99082.50;;;10.70;100.00
35331;BME280;21441;52.190;20.910;2023-04-25T10:46:16;99095.75;;;11.05;100.00
35331;BME280;21441;52.190;20.910;2023-04-25T10:48:46;99097.16;;;10.94;100.00
35331;BME280;21441;52.190;20.910;2023-04-25T10:51:16;99097.19;;;11.14;100.00
35331;BME280;21441;52.190;20.910;2023-04-25T10:53:44;99098.41;;;10.99;100.00
35331;BME280;21441;52.190;20.910;2023-04-25T10:56:12;99102.34;;;11.16;100.00
35331;BME280;21441;52.190;20.910;2023-04-25T10:58:45;99093.94;;;11.46;100.00
35331;BME280;21441;52.190;20.910;2023-04-25T11:01:13;99091.50;;;11.71;100.00
35331;BME280;21441;52.190;20.910;2023-04-25T11:03:41;99091.50;;;11.77;100.00
35331;BME280;21441;52.190;20.910;2023-04-25T11:06:18;99092.72;;;11.82;100.00
35331;BME280;21441;52.190;20.910;2023-04-25T11:08:50;99106.91;;;11.82;100.00
35331;BME280;21441;52.190;20.910;2023-04-25T11:11:18;99107.09;;;11.87;100.00
35331;BME280;21441;52.190;20.910;2023-04-25T11:13:49;99100.09;;;12.13;100.00
35331;BME280;21441;52.190;20.910;2023-04-25T11:16:16;99077.69;;;12.07;100.00
35331;BME280;21441;52.190;20.910;2023-04-25T11:18:44;99100.88;;;12.27;100.00
35331;BME280;21441;52.190;20.910;2023-04-25T11:21:11;99105.88;;;12.10;100.00
35331;BME280;21441;52.190;20.910;2023-04-25T11:23:39;99107.34;;;11.92;100.00
35331;BME280;21441;52.190;20.910;2023-04-25T11:26:06;99103.19;;;12.16;100.00
35331;BME280;21441;52.190;20.910;2023-04-25T11:28:33;99104.19;;;12.29;100.00
35331;BME280;21441;52.190;20.910;2023-04-25T11:31:04;99101.13;;;12.12;100.00
35331;BME280;21441;52.190;20.910;2023-04-25T11:33:32;99096.34;;;12.27;100.00
35331;BME280;21441;52.190;20.910;2023-04-25T11:35:59;99099.47;;;12.24;100.00
35331;BME280;21441;52.190;20.910;2023-04-25T11:38:26;99106.28;;;11.80;100.00
35331;BME280;21441;52.190;20.910;2023-04-25T11:40:54;99099.72;;;11.96;100.00
35331;BME280;21441;52.190;20.910;2023-04-25T11:43:22;99100.50;;;11.83;100.00
35331;BME280;21441;52.190;20.910;2023-04-25T11:45:49;99098.66;;;12.17;100.00
35331;BME280;21441;52.190;20.910;2023-04-25T11:48:19;99106.66;;;12.24;100.00
35331;BME280;21441;52.190;20.910;2023-04-25T11:50:47;99102.97;;;12.18;100.00
35331;BME280;21441;52.190;20.910;2023-04-25T11:53:14;99104.06;;;11.90;100.00
35331;BME280;21441;52.190;20.910;2023-04-25T11:55:44;99104.25;;;11.75;100.00
35331;BME280;21441;52.190;20.910;2023-04-25T11:58:11;99096.84;;;11.71;100.00
35331;BME280;21441;52.190;20.910;2023-04-25T12:00:41;99106.09;;;11.55;100.00
35331;BME280;21441;52.190;20.910;2023-04-25T12:03:09;99115.31;;;11.46;100.00
35331;BME280;21441;52.190;20.910;2023-04-25T12:05:37;99099.72;;;11.49;100.00
35331;BME280;21441;52.190;20.910;2023-04-25T12:08:13;99097.84;;;11.63;100.00
35331;BME280;21441;52.190;20.910;2023-04-25T12:10:42;99101.16;;;11.52;100.00
35331;BME280;21441;52.190;20.910;2023-04-25T12:13:25;99098.72;;;11.90;100.00
35331;BME280;21441;52.190;20.910;2023-04-25T12:15:54;99098.28;;;11.67;100.00
35331;BME280;21441;52.190;20.910;2023-04-25T12:18:23;99102.81;;;11.73;100.00
35331;BME280;21441;52.190;20.910;2023-04-25T12:20:54;99101.78;;;11.94;99.36
35331;BME280;21441;52.190;20.910;2023-04-25T12:23:25;99102.38;;;12.09;100.00
35331;BME280;21441;52.190;20.910;2023-04-25T12:25:53;99103.81;;;11.98;97.46
35331;BME280;21441;52.190;20.910;2023-04-25T12:28:21;99089.22;;;12.08;97.06
35331;BME280;21441;52.190;20.910;2023-04-25T12:30:56;99106.91;;;12.02;100.00
35331;BME280;21441;52.190;20.910;2023-04-25T12:33:25;99100.94;;;12.00;96.76
35331;BME280;21441;52.190;20.910;2023-04-25T12:35:54;99104.84;;;12.11;96.76
35331;BME280;21441;52.190;20.910;2023-04-25T12:38:23;99105.88;;;11.90;97.63
35331;BME280;21441;52.190;20.910;2023-04-25T12:40:50;99098.69;;;11.64;96.65
35331;BME280;21441;52.190;20.910;2023-04-25T12:43:18;99102.19;;;11.91;97.28
35331;BME280;21441;52.190;20.910;2023-04-25T12:45:47;99105.03;;;11.83;98.32